createdAt,value
2023-03-05T00:01:15.505Z,90.78
2023-03-05T00:03:42.620Z,89.67
2023-03-05T00:06:09.860Z,89.41
2023-03-05T00:08:37.221Z,87.90
2023-03-05T00:11:10.350Z,87.97
2023-03-05T00:13:38.550Z,86.79
2023-03-05T00:16:08.785Z,86.53
2023-03-05T00:18:35.818Z,85.75
2023-03-05T00:21:03.321Z,85.73
2023-03-05T00:23:30.446Z,86.14
2023-03-05T00:26:00.855Z,84.51
2023-03-05T00:28:27.809Z,85.67
2023-03-05T00:30:54.769Z,85.33
2023-03-05T00:33:22.131Z,85.72
2023-03-05T00:35:49.247Z,86.29
2023-03-05T00:38:16.674Z,86.04
2023-03-05T00:40:43.570Z,86.08
2023-03-05T00:43:11.142Z,87.05
2023-03-05T00:45:39.117Z,86.21
2023-03-05T00:48:06.316Z,86.65
2023-03-05T00:50:33.935Z,87.44
2023-03-05T00:53:03.893Z,86.14
2023-03-05T00:55:36.670Z,86.04
2023-03-05T00:58:06.690Z,85.47
2023-03-05T01:00:37.127Z,85.77
2023-03-05T01:03:04.772Z,85.64
2023-03-05T01:05:32.105Z,85.36
2023-03-05T01:07:59.197Z,84.55
2023-03-05T01:10:32.327Z,85.81
2023-03-05T01:12:59.184Z,84.54
2023-03-05T01:15:26.409Z,84.61
2023-03-05T01:17:53.556Z,83.88
2023-03-05T01:20:22.328Z,83.64
2023-03-05T01:22:49.346Z,85.26
2023-03-05T01:25:17.475Z,86.61
2023-03-05T01:27:44.927Z,87.78
2023-03-05T01:30:14.100Z,87.35
2023-03-05T01:32:41.316Z,85.99
2023-03-05T01:35:09.058Z,85.62
2023-03-05T01:37:35.920Z,85.63
2023-03-05T01:40:03.127Z,87.00
2023-03-05T01:42:30.431Z,86.67
2023-03-05T01:45:03.607Z,87.61
2023-03-05T01:47:30.821Z,88.66
2023-03-05T01:49:57.884Z,90.13
2023-03-05T01:52:27.679Z,90.67
2023-03-05T01:54:59.753Z,91.10
2023-03-05T01:57:40.268Z,90.36
2023-03-05T02:00:13.994Z,89.79
2023-03-05T02:02:43.565Z,88.63
2023-03-05T02:05:27.209Z,87.65
2023-03-05T02:08:03.969Z,87.78
2023-03-05T02:10:34.190Z,88.48
2023-03-05T02:13:04.589Z,87.43
2023-03-05T02:15:33.622Z,88.66
2023-03-05T02:18:01.671Z,89.75
2023-03-05T02:20:31.552Z,92.35
2023-03-05T02:22:58.573Z,93.87
2023-03-05T02:25:27.956Z,93.54
2023-03-05T02:28:00.477Z,93.93
2023-03-05T02:30:28.852Z,93.69
2023-03-05T02:32:55.856Z,93.98
2023-03-05T02:35:23.800Z,94.09
2023-03-05T02:37:51.427Z,93.76
2023-03-05T02:40:18.666Z,93.46
2023-03-05T02:42:46.723Z,92.78
2023-03-05T02:45:15.550Z,92.83
2023-03-05T02:47:42.519Z,92.33
2023-03-05T02:50:11.821Z,91.77
2023-03-05T02:52:39.515Z,91.53
2023-03-05T02:55:11.877Z,91.05
2023-03-05T02:57:40.399Z,90.89
2023-03-05T03:00:08.565Z,91.15
2023-03-05T03:02:35.681Z,90.13
2023-03-05T03:05:02.591Z,89.30
2023-03-05T03:07:30.637Z,89.84
2023-03-05T03:09:57.606Z,90.07
2023-03-05T03:12:24.456Z,90.03
2023-03-05T03:14:51.827Z,90.17
2023-03-05T03:17:19.176Z,90.26
2023-03-05T03:19:46.562Z,90.18
2023-03-05T03:22:15.574Z,89.09
2023-03-05T03:24:44.082Z,89.22
2023-03-05T03:27:11.065Z,88.33
2023-03-05T03:29:38.504Z,88.55
2023-03-05T03:32:05.795Z,86.94
2023-03-05T03:34:32.679Z,87.96
2023-03-05T03:36:59.521Z,88.32
2023-03-05T03:39:26.578Z,87.48
2023-03-05T03:41:53.761Z,87.27
2023-03-05T03:44:21.775Z,87.04
2023-03-05T03:46:50.603Z,86.34
2023-03-05T03:49:25.974Z,86.24
2023-03-05T03:51:58.308Z,85.48
2023-03-05T03:54:25.669Z,85.51
2023-03-05T03:56:52.915Z,85.18
2023-03-05T03:59:19.814Z,85.13
2023-03-05T04:01:47.985Z,85.38
2023-03-05T04:04:15.543Z,85.40
2023-03-05T04:06:42.515Z,85.61
2023-03-05T04:09:09.722Z,85.49
2023-03-05T04:11:37.851Z,86.81
2023-03-05T04:14:05.945Z,88.24
2023-03-05T04:16:33.219Z,88.50
2023-03-05T04:19:00.222Z,87.66
2023-03-05T04:21:27.337Z,87.18
2023-03-05T04:23:54.169Z,87.46
2023-03-05T04:26:21.111Z,88.72
2023-03-05T04:28:48.642Z,89.09
2023-03-05T04:31:15.847Z,90.23
2023-03-05T04:33:42.972Z,90.37
2023-03-05T04:36:10.051Z,90.70
2023-03-05T04:38:36.992Z,91.34
2023-03-05T04:41:04.222Z,91.65
2023-03-05T04:43:31.345Z,92.25
2023-03-05T04:45:58.762Z,91.88
2023-03-05T04:48:25.792Z,92.28
2023-03-05T04:50:52.782Z,91.20
2023-03-05T04:53:19.667Z,90.56
2023-03-05T04:55:46.600Z,89.54
2023-03-05T04:58:13.464Z,88.60
2023-03-05T05:00:40.393Z,88.72
2023-03-05T05:03:07.615Z,88.21
2023-03-05T05:05:34.555Z,88.02
2023-03-05T05:08:01.571Z,87.94
2023-03-05T05:10:28.560Z,88.26
2023-03-05T05:12:55.477Z,88.46
2023-03-05T05:15:22.507Z,87.83
2023-03-05T05:17:49.502Z,87.74
2023-03-05T05:20:17.385Z,87.66
2023-03-05T05:22:44.539Z,88.23
2023-03-05T05:25:11.999Z,87.89
2023-03-05T05:27:40.939Z,89.13
2023-03-05T05:30:08.661Z,89.27
2023-03-05T05:32:35.930Z,88.75
2023-03-05T05:35:04.129Z,87.94
2023-03-05T05:37:31.133Z,87.35
2023-03-05T05:39:58.278Z,86.99
2023-03-05T05:42:25.486Z,85.58
2023-03-05T05:44:53.029Z,84.97
2023-03-05T05:47:20.129Z,84.26
2023-03-05T05:49:47.041Z,83.84
2023-03-05T05:52:14.331Z,83.17
2023-03-05T05:54:41.229Z,83.74
2023-03-05T05:57:08.491Z,83.72
2023-03-05T05:59:35.558Z,83.70
2023-03-05T06:02:02.510Z,83.88
2023-03-05T06:04:29.609Z,84.68
2023-03-05T06:06:56.729Z,85.20
2023-03-05T06:09:23.676Z,84.54
2023-03-05T06:11:50.663Z,84.94
2023-03-05T06:14:17.687Z,83.94
2023-03-05T06:16:44.979Z,84.06
2023-03-05T06:19:13.800Z,84.24
2023-03-05T06:21:41.027Z,83.58
2023-03-05T06:24:08.116Z,83.76
2023-03-05T06:26:35.094Z,84.86
2023-03-05T06:29:02.582Z,85.16
2023-03-05T06:31:30.422Z,85.11
2023-03-05T06:34:03.823Z,85.17
2023-03-05T06:36:31.447Z,84.31
2023-03-05T06:38:59.017Z,85.12
2023-03-05T06:41:28.849Z,83.01
2023-03-05T06:43:56.192Z,82.74
2023-03-05T06:46:29.188Z,82.37
2023-03-05T06:48:57.834Z,81.15
2023-03-05T06:51:30.795Z,80.28
2023-03-05T06:54:02.800Z,79.97
2023-03-05T06:56:30.087Z,80.27
2023-03-05T06:58:57.402Z,78.56
2023-03-05T07:01:24.474Z,78.11
2023-03-05T07:03:53.728Z,78.20
2023-03-05T07:06:21.664Z,78.01
2023-03-05T07:08:49.264Z,77.54
2023-03-05T07:11:19.573Z,78.15
2023-03-05T07:13:50.166Z,78.03
2023-03-05T07:16:26.439Z,78.73
2023-03-05T07:18:54.212Z,77.97
2023-03-05T07:21:27.370Z,79.83
2023-03-05T07:23:55.704Z,80.03
2023-03-05T07:26:23.298Z,80.50
2023-03-05T07:28:50.584Z,81.13
2023-03-05T07:31:30.204Z,82.12
2023-03-05T07:34:03.195Z,82.05
2023-03-05T07:36:30.926Z,81.32
2023-03-05T07:38:57.930Z,82.42
2023-03-05T07:41:24.995Z,80.93
2023-03-05T07:43:54.095Z,81.02
2023-03-05T07:46:25.060Z,79.70
2023-03-05T07:48:52.722Z,79.75
2023-03-05T07:51:20.448Z,79.76
2023-03-05T07:53:49.485Z,79.43
2023-03-05T07:56:29.060Z,77.57
2023-03-05T07:58:56.056Z,77.99
2023-03-05T08:01:23.333Z,77.44
2023-03-05T08:03:50.403Z,76.16
2023-03-05T08:06:17.601Z,76.40
2023-03-05T08:08:45.003Z,75.61
2023-03-05T08:11:14.429Z,75.27
2023-03-05T08:13:42.471Z,75.16
2023-03-05T08:16:14.133Z,74.91
2023-03-05T08:18:44.804Z,74.89
2023-03-05T08:21:20.051Z,74.43
2023-03-05T08:23:47.322Z,75.30
2023-03-05T08:26:18.896Z,75.39
2023-03-05T08:28:46.112Z,74.15
2023-03-05T08:31:14.736Z,74.18
2023-03-05T08:33:43.106Z,73.70
2023-03-05T08:36:10.724Z,74.77
2023-03-05T08:38:37.912Z,74.12
2023-03-05T08:41:05.262Z,74.58
2023-03-05T08:43:35.417Z,74.29
2023-03-05T08:46:02.985Z,74.04
2023-03-05T08:48:30.449Z,73.18
2023-03-05T08:51:00.830Z,73.55
2023-03-05T08:53:27.688Z,72.91
2023-03-05T08:55:59.368Z,72.62
2023-03-05T08:58:26.899Z,72.54
2023-03-05T09:00:53.843Z,72.28
2023-03-05T09:03:20.929Z,72.00
2023-03-05T09:05:48.068Z,71.45
2023-03-05T09:08:15.445Z,70.79
2023-03-05T09:10:46.333Z,70.45
2023-03-05T09:13:13.337Z,70.34
2023-03-05T09:15:40.318Z,70.19
2023-03-05T09:18:09.105Z,68.71
2023-03-05T09:20:36.871Z,67.28
2023-03-05T09:23:04.305Z,68.08
2023-03-05T09:25:31.498Z,67.89
2023-03-05T09:27:58.449Z,68.74
2023-03-05T09:30:27.787Z,68.76
2023-03-05T09:32:55.110Z,66.67
2023-03-05T09:35:22.466Z,66.51
2023-03-05T09:37:51.438Z,65.20
2023-03-05T09:40:27.739Z,65.54
2023-03-05T09:43:24.589Z,65.03
2023-03-05T09:46:01.604Z,65.40
2023-03-05T09:48:44.556Z,64.29
2023-03-05T09:51:18.067Z,64.39
2023-03-05T09:54:01.684Z,63.91
2023-03-05T09:56:43.462Z,63.38
2023-03-05T09:59:36.036Z,63.26
2023-03-05T10:02:20.280Z,63.03
2023-03-05T10:04:58.574Z,62.37
2023-03-05T10:07:36.734Z,60.61
2023-03-05T10:10:33.196Z,63.97
2023-03-05T10:13:11.441Z,65.08
2023-03-05T10:15:51.956Z,63.76
2023-03-05T10:18:28.120Z,63.46
2023-03-05T10:21:22.239Z,63.70
2023-03-05T10:24:17.863Z,62.20
2023-03-05T10:26:53.885Z,62.32
2023-03-05T10:29:48.170Z,60.81
2023-03-05T10:32:21.150Z,53.91
2023-03-05T10:35:11.376Z,54.25
2023-03-05T10:38:08.766Z,55.90
2023-03-05T10:41:19.924Z,55.79
2023-03-05T10:43:51.635Z,55.11
2023-03-05T10:46:22.568Z,59.93
2023-03-05T10:49:21.127Z,61.95
2023-03-05T10:51:53.484Z,59.94
2023-03-05T10:54:38.783Z,58.10
2023-03-05T10:57:15.796Z,53.70
2023-03-05T10:59:48.968Z,52.32
2023-03-05T11:02:16.264Z,52.50
2023-03-05T11:04:44.273Z,52.70
2023-03-05T11:07:17.187Z,52.04
2023-03-05T11:10:04.606Z,52.61
2023-03-05T11:12:39.743Z,53.11
2023-03-05T11:15:26.343Z,52.88
2023-03-05T11:18:17.883Z,53.06
2023-03-05T11:20:45.495Z,53.60
2023-03-05T11:23:18.595Z,52.57
2023-03-05T11:26:13.059Z,52.53
2023-03-05T11:28:52.299Z,52.53
2023-03-05T11:31:19.273Z,52.94
2023-03-05T11:34:04.941Z,53.96
2023-03-05T11:36:38.838Z,52.58
2023-03-05T11:39:17.516Z,53.24
2023-03-05T11:41:56.429Z,52.52
2023-03-05T11:44:35.230Z,51.53
2023-03-05T11:47:40.474Z,52.01
2023-03-05T11:50:07.548Z,52.42
2023-03-05T11:52:45.193Z,52.78
2023-03-05T11:55:18.723Z,52.58
2023-03-05T11:57:53.644Z,52.39
2023-03-05T12:00:29.889Z,52.38
2023-03-05T12:03:00.820Z,52.75
2023-03-05T12:05:30.183Z,52.14
2023-03-05T12:08:01.930Z,52.05
2023-03-05T12:10:29.406Z,52.47
2023-03-05T12:13:04.872Z,52.35
2023-03-05T12:15:41.192Z,52.22
2023-03-05T12:18:35.338Z,51.73
2023-03-05T12:21:21.859Z,53.18
2023-03-05T12:23:53.588Z,53.04
2023-03-05T12:27:02.353Z,59.20
2023-03-05T12:29:46.761Z,59.88
2023-03-05T12:32:25.728Z,61.00
2023-03-05T12:35:18.492Z,61.25
2023-03-05T12:37:45.456Z,61.63
2023-03-05T12:40:28.227Z,60.73
2023-03-05T12:43:06.377Z,61.31
2023-03-05T12:45:41.324Z,60.93
2023-03-05T12:48:12.674Z,60.52
2023-03-05T12:50:39.682Z,61.01
2023-03-05T12:53:14.289Z,60.82
2023-03-05T12:55:46.039Z,59.47
2023-03-05T12:58:43.312Z,60.01
2023-03-05T13:01:28.803Z,59.46
2023-03-05T13:04:11.817Z,60.11
2023-03-05T13:06:39.689Z,59.19
2023-03-05T13:09:25.025Z,59.49
2023-03-05T13:11:54.304Z,59.04
2023-03-05T13:14:33.336Z,58.60
2023-03-05T13:17:01.677Z,57.85
2023-03-05T13:19:32.988Z,58.15
2023-03-05T13:22:02.836Z,57.84
2023-03-05T13:24:30.755Z,59.00
2023-03-05T13:26:57.744Z,58.12
2023-03-05T13:29:30.983Z,58.25
2023-03-05T13:32:04.373Z,57.70
2023-03-05T13:34:47.169Z,57.96
2023-03-05T13:37:24.208Z,58.54
2023-03-05T13:40:07.457Z,58.91
2023-03-05T13:42:36.314Z,59.06
2023-03-05T13:45:20.972Z,58.25
2023-03-05T13:47:58.213Z,58.43
2023-03-05T13:50:37.318Z,58.38
2023-03-05T13:53:19.279Z,58.25
2023-03-05T13:55:50.748Z,57.65
2023-03-05T13:58:44.456Z,57.47
2023-03-05T14:01:18.475Z,57.73
2023-03-05T14:03:50.455Z,57.32
2023-03-05T14:06:21.700Z,58.19
2023-03-05T14:08:54.578Z,57.92
2023-03-05T14:11:21.625Z,57.49
2023-03-05T14:13:49.395Z,57.35
2023-03-05T14:16:26.482Z,55.96
2023-03-05T14:19:02.309Z,55.64
2023-03-05T14:21:50.510Z,56.54
2023-03-05T14:24:28.688Z,56.70
2023-03-05T14:27:03.394Z,55.46
2023-03-05T14:29:32.793Z,55.40
2023-03-05T14:32:02.967Z,54.84
2023-03-05T14:34:35.070Z,54.59
2023-03-05T14:37:05.472Z,54.90
2023-03-05T14:39:35.217Z,54.20
2023-03-05T14:42:24.357Z,54.12
2023-03-05T14:44:51.524Z,54.90
2023-03-05T14:47:18.525Z,54.62
2023-03-05T14:49:45.343Z,54.48
2023-03-05T14:52:16.980Z,53.87
2023-03-05T14:54:44.755Z,54.08
2023-03-05T14:57:24.484Z,53.84
2023-03-05T14:59:51.371Z,54.05
2023-03-05T15:02:21.910Z,53.58
2023-03-05T15:04:49.309Z,52.91
2023-03-05T15:07:32.367Z,53.00
2023-03-05T15:10:02.129Z,52.95
2023-03-05T15:12:30.590Z,51.44
2023-03-05T15:14:57.741Z,52.07
2023-03-05T15:17:35.284Z,52.78
2023-03-05T15:20:08.105Z,52.95
2023-03-05T15:22:35.162Z,52.94
2023-03-05T15:25:02.487Z,52.99
2023-03-05T15:27:30.206Z,52.37
2023-03-05T15:29:57.277Z,53.05
2023-03-05T15:32:27.514Z,49.95
2023-03-05T15:34:55.038Z,49.36
2023-03-05T15:37:22.306Z,49.18
2023-03-05T15:39:50.028Z,50.22
2023-03-05T15:42:17.248Z,50.72
2023-03-05T15:44:44.272Z,51.32
2023-03-05T15:47:11.524Z,51.32
2023-03-05T15:49:38.952Z,50.39
2023-03-05T15:52:05.887Z,49.53
2023-03-05T15:54:32.874Z,48.74
2023-03-05T15:56:59.817Z,48.26
2023-03-05T15:59:27.871Z,48.35
2023-03-05T16:01:54.897Z,48.87
2023-03-05T16:04:21.932Z,49.76
2023-03-05T16:06:50.520Z,49.41
2023-03-05T16:09:20.771Z,50.08
2023-03-05T16:11:51.671Z,50.88
2023-03-05T16:14:24.438Z,51.14
2023-03-05T16:16:55.285Z,51.65
2023-03-05T16:19:24.482Z,51.64
2023-03-05T16:21:51.418Z,52.11
2023-03-05T16:24:18.513Z,52.11
2023-03-05T16:26:45.432Z,52.02
2023-03-05T16:29:12.726Z,51.91
2023-03-05T16:31:41.656Z,51.22
2023-03-05T16:34:09.594Z,51.08
2023-03-05T16:36:36.644Z,51.24
2023-03-05T16:39:05.283Z,51.30
2023-03-05T16:41:32.913Z,51.56
2023-03-05T16:44:00.320Z,51.42
2023-03-05T16:46:29.625Z,51.65
2023-03-05T16:48:58.036Z,52.46
2023-03-05T16:51:26.411Z,52.34
2023-03-05T16:53:55.612Z,52.81
2023-03-05T16:56:23.070Z,52.79
2023-03-05T16:58:53.210Z,52.62
2023-03-05T17:01:21.206Z,52.50
2023-03-05T17:03:48.859Z,53.08
2023-03-05T17:06:18.772Z,53.36
2023-03-05T17:08:47.511Z,52.63
2023-03-05T17:11:14.871Z,52.52
2023-03-05T17:13:42.522Z,52.40
2023-03-05T17:16:11.993Z,52.13
2023-03-05T17:18:39.110Z,52.21
2023-03-05T17:21:07.747Z,52.38
2023-03-05T17:23:36.525Z,53.11
2023-03-05T17:26:09.081Z,52.65
2023-03-05T17:28:36.116Z,52.76
2023-03-05T17:31:04.094Z,52.77
2023-03-05T17:33:35.745Z,53.61
2023-03-05T17:36:03.299Z,53.46
2023-03-05T17:38:31.535Z,52.72
2023-03-05T17:40:58.641Z,53.08
2023-03-05T17:43:25.741Z,53.66
2023-03-05T17:45:52.932Z,53.62
2023-03-05T17:48:19.998Z,54.42
2023-03-05T17:50:47.007Z,54.75
2023-03-05T17:53:14.156Z,54.85
2023-03-05T17:55:41.074Z,55.15
2023-03-05T17:58:08.368Z,54.82
2023-03-05T18:00:36.117Z,55.22
2023-03-05T18:03:03.085Z,55.31
2023-03-05T18:05:30.648Z,55.43
2023-03-05T18:07:57.963Z,56.19
2023-03-05T18:10:26.486Z,55.96
2023-03-05T18:12:54.461Z,56.17
2023-03-05T18:15:23.177Z,56.09
2023-03-05T18:17:50.805Z,56.00
2023-03-05T18:20:26.586Z,55.94
2023-03-05T18:22:54.346Z,56.11
2023-03-05T18:25:22.208Z,55.80
2023-03-05T18:27:49.282Z,55.65
2023-03-05T18:30:16.273Z,55.66
2023-03-05T18:32:44.358Z,55.82
2023-03-05T18:35:12.231Z,55.74
2023-03-05T18:37:39.976Z,54.84
2023-03-05T18:40:09.759Z,55.34
2023-03-05T18:42:37.577Z,54.61
2023-03-05T18:45:06.863Z,54.92
2023-03-05T18:47:34.092Z,55.38
2023-03-05T18:50:01.267Z,55.13
2023-03-05T18:52:29.798Z,54.41
2023-03-05T18:54:59.860Z,55.07
2023-03-05T18:57:27.139Z,54.69
2023-03-05T18:59:54.259Z,54.95
2023-03-05T19:02:21.199Z,54.42
2023-03-05T19:04:48.241Z,54.59
2023-03-05T19:07:15.394Z,54.20
2023-03-05T19:09:59.706Z,54.41
2023-03-05T19:12:35.263Z,54.92
2023-03-05T19:15:03.607Z,53.86
2023-03-05T19:17:32.418Z,54.46
2023-03-05T19:19:59.988Z,54.51
2023-03-05T19:22:28.602Z,54.39
2023-03-05T19:24:56.086Z,54.33
2023-03-05T19:27:24.947Z,53.80
2023-03-05T19:29:53.808Z,53.68
2023-03-05T19:32:24.288Z,53.95
2023-03-05T19:34:55.606Z,53.72
2023-03-05T19:37:22.698Z,53.46
2023-03-05T19:39:49.797Z,53.71
2023-03-05T19:42:16.815Z,54.62
2023-03-05T19:44:43.755Z,54.93
2023-03-05T19:47:11.093Z,54.04
2023-03-05T19:49:38.105Z,54.60
2023-03-05T19:52:06.346Z,55.11
2023-03-05T19:54:33.588Z,54.79
2023-03-05T19:57:00.591Z,54.69
2023-03-05T19:59:27.626Z,54.82
2023-03-05T20:01:54.852Z,55.41
2023-03-05T20:04:24.235Z,55.09
2023-03-05T20:06:51.201Z,55.65
2023-03-05T20:09:18.160Z,55.67
2023-03-05T20:11:46.005Z,55.67
2023-03-05T20:14:14.772Z,56.00
2023-03-05T20:16:43.469Z,56.27
2023-03-05T20:19:16.860Z,56.15
2023-03-05T20:21:45.542Z,55.37
2023-03-05T20:24:15.124Z,56.39
2023-03-05T20:26:44.093Z,56.62
2023-03-05T20:29:12.094Z,56.15
2023-03-05T20:31:40.177Z,56.77
2023-03-05T20:34:10.007Z,55.96
2023-03-05T20:36:37.166Z,56.32
2023-03-05T20:39:07.492Z,57.00
2023-03-05T20:41:37.705Z,57.92
2023-03-05T20:44:06.256Z,57.55
2023-03-05T20:46:36.229Z,57.87
2023-03-05T20:49:21.615Z,57.71
2023-03-05T20:51:50.875Z,57.96
2023-03-05T20:54:18.708Z,58.61
2023-03-05T20:56:45.919Z,57.61
2023-03-05T20:59:13.151Z,57.81
2023-03-05T21:01:41.029Z,58.20
2023-03-05T21:04:09.016Z,57.67
2023-03-05T21:06:36.960Z,57.42
2023-03-05T21:09:04.222Z,57.91
2023-03-05T21:11:32.127Z,58.55
2023-03-05T21:13:59.453Z,58.65
2023-03-05T21:16:28.136Z,58.21
2023-03-05T21:18:57.397Z,58.31
2023-03-05T21:21:24.918Z,57.42
2023-03-05T21:23:52.320Z,57.36
2023-03-05T21:26:19.382Z,57.84
2023-03-05T21:28:46.352Z,57.65
2023-03-05T21:31:21.396Z,58.65
2023-03-05T21:33:49.494Z,58.49
2023-03-05T21:36:19.386Z,58.21
2023-03-05T21:38:50.718Z,57.28
2023-03-05T21:41:20.371Z,59.49
2023-03-05T21:43:47.276Z,59.68
2023-03-05T21:46:14.448Z,58.86
2023-03-05T21:48:41.413Z,58.95
2023-03-05T21:51:11.564Z,58.57
2023-03-05T21:53:38.519Z,58.35
2023-03-05T21:56:12.401Z,57.98
2023-03-05T21:58:39.473Z,58.10
2023-03-05T22:01:06.433Z,58.40
2023-03-05T22:03:33.418Z,58.31
2023-03-05T22:06:00.414Z,58.40
2023-03-05T22:08:29.969Z,57.75
2023-03-05T22:10:57.035Z,57.75
2023-03-05T22:13:23.984Z,58.46
2023-03-05T22:15:53.486Z,58.25
2023-03-05T22:18:23.414Z,57.70
2023-03-05T22:20:50.871Z,57.98
2023-03-05T22:23:19.081Z,59.13
2023-03-05T22:25:46.034Z,58.17
2023-03-05T22:28:13.760Z,59.65
2023-03-05T22:30:45.238Z,61.47
2023-03-05T22:33:12.866Z,61.94
2023-03-05T22:35:41.260Z,61.61
2023-03-05T22:38:10.072Z,61.04
2023-03-05T22:40:41.524Z,61.99
2023-03-05T22:43:08.597Z,61.92
2023-03-05T22:45:35.579Z,62.29
2023-03-05T22:48:02.795Z,62.70
2023-03-05T22:50:29.862Z,62.90
2023-03-05T22:52:56.986Z,62.06
2023-03-05T22:55:24.016Z,62.92
2023-03-05T22:57:51.155Z,62.46
2023-03-05T23:00:27.018Z,63.87
2023-03-05T23:02:54.293Z,63.71
2023-03-05T23:05:21.496Z,64.32
2023-03-05T23:07:49.512Z,64.63
2023-03-05T23:10:20.862Z,64.44
2023-03-05T23:12:50.500Z,64.22
2023-03-05T23:15:23.473Z,65.47
2023-03-05T23:17:50.452Z,66.64
2023-03-05T23:20:20.952Z,66.91
2023-03-05T23:22:49.073Z,65.92
2023-03-05T23:25:16.614Z,65.75
2023-03-05T23:27:45.050Z,66.78
2023-03-05T23:30:31.172Z,66.67
2023-03-05T23:33:14.651Z,66.95
2023-03-05T23:36:01.939Z,66.95
2023-03-05T23:38:30.215Z,66.51
2023-03-05T23:41:01.481Z,65.80
2023-03-05T23:43:29.274Z,66.38
2023-03-05T23:45:56.988Z,66.89
2023-03-05T23:48:25.942Z,66.88
2023-03-05T23:50:53.193Z,66.80
2023-03-05T23:53:25.987Z,67.11
2023-03-05T23:55:53.825Z,66.05
2023-03-05T23:58:21.580Z,65.54
